Flight Track Log - Related Links

Times and Time Zones

All times are in EDT time to prevent confusion due to time zone crossing. See the EJA364 flight status page for this flight to view local times or setup timezone preferences in your user account.

Time Position Orientation Groundspeed Altitude Reporting Facility
EDT Latitude Longitude Course Direction KTS MPH feet Rate Location/Type
Tue 03:59:05 PM 29.9681 -95.3453 131° Southeast 170 196 800  Level Houston Center
Tue 03:59:35 PM 29.9514 -95.3231 131° Southeast 209 241 2,400 1,979 Climbing Houston Center
Tue 04:00:42 PM 29.9369 -95.2333 101° East 284 327 4,000 1,055 Climbing Houston Center
Tue 04:01:06 PM 29.9411 -95.2094 79° East 262 302 4,000 643 Level Houston Center
Tue 04:01:38 PM 29.9444 -95.1575 86° East 252 290 4,600 2,032 Climbing Houston Center
Tue 04:02:08 PM 29.9467 -95.1239 86° East 267 307 6,100 4,230 Climbing Houston Center
Tue 04:02:39 PM 29.9489 -95.0678 87° East 276 318 8,900 4,161 Climbing Houston Center
Tue 04:03:10 PM 29.9533 -95.0319 82° East 282 325 10,400 3,290 Climbing Houston Center
Tue 04:04:12 PM 29.9589 -94.9331 86° East 304 350 14,000 2,736 Climbing Houston Center
Tue 04:05:15 PM 29.9669 -94.8003 86° East 347 399 16,100 2,304 Climbing Houston Center
Tue 04:06:17 PM 29.9750 -94.6714 86° East 397 457 18,800 2,758 Climbing Houston Center
Tue 04:07:19 PM 29.9828 -94.5461 86° East 392 451 21,800 2,081 Climbing Houston Center
Tue 04:08:21 PM 29.9908 -94.4139 86° East 396 456 23,100 1,742 Climbing Houston Center
Tue 04:09:23 PM 30.0000 -94.2733 86° East 435 501 25,400 2,323 Climbing Houston Center
Tue 04:10:25 PM 30.0175 -94.1378 81° East 431 496 27,900 2,226 Climbing Houston Center
Tue 04:11:27 PM 30.0339 -94.0033 82° East 427 491 30,000 1,887 Climbing Houston Center
Tue 04:12:29 PM 30.0544 -93.8394 82° East 434 499 31,800 1,597 Climbing Houston Center
Tue 04:13:31 PM 30.0706 -93.6994 82° East 444 511 33,300 1,306 Climbing Houston Center
Tue 04:14:33 PM 30.0881 -93.5589 82° East 449 517 34,500 1,065 Climbing Houston Center
Tue 04:15:35 PM 30.1031 -93.4164 83° East 452 520 35,500 968 Climbing Houston Center
Tue 04:16:37 PM 30.1203 -93.2703 82° East 463 533 36,500 1,065 Climbing Houston Center
Tue 04:17:39 PM 30.1425 -93.0961 82° East 461 531 37,700 1,065 Climbing Houston Center
Tue 04:18:41 PM 30.1694 -92.9525 78° East 462 532 38,700 968 Climbing Houston Center
Tue 04:19:43 PM 30.1983 -92.8114 77° East 456 525 39,700 927 Climbing Houston Center
Tue 04:20:44 PM 30.2264 -92.6689 77° East 457 526 40,600 634 Climbing Houston Center
Tue 04:21:46 PM 30.2525 -92.5286 78° East 450 518 41,000 194 Climbing Houston Center
Tue 04:22:48 PM 30.2869 -92.3544 77° East 463 533 41,000  Level Houston Center
Tue 04:23:50 PM 30.3119 -92.2208 78° East 467 537 41,000  Level Houston Center
Tue 04:24:52 PM 30.3392 -92.0750 78° East 467 537 41,000  Level Houston Center
Tue 04:25:54 PM 30.3736 -91.8975 77° East 472 543 41,000  Level Houston Center
Tue 04:26:56 PM 30.4008 -91.7486 78° East 476 548 41,000  Level Houston Center
Tue 04:27:58 PM 30.4292 -91.6058 77° East 477 549 41,000 387 Level Houston Center
Tue 04:29:00 PM 30.4567 -91.4564 78° East 476 548 41,800 823 Climbing Houston Center
Tue 04:30:02 PM 30.4836 -91.3106 78° East 465 535 42,700 581 Climbing Houston Center
Tue 04:31:04 PM 30.5219 -91.1383 75° East 461 531 43,000 145 Climbing Houston Center
Tue 04:32:06 PM 30.5553 -90.9911 75° East 471 542 43,000  Level Houston Center
Tue 04:33:07 PM 30.5897 -90.8406 75° East 481 554 43,000  Level Houston Center
Tue 04:34:09 PM 30.6233 -90.6869 76° East 489 563 43,000  Level Houston Center
Tue 04:35:11 PM 30.6583 -90.5319 75° East 495 570 43,000  Level Houston Center
Tue 04:36:13 PM 30.6939 -90.3739 75° East 501 577 43,000  Level Houston Center
Tue 04:37:15 PM 30.7292 -90.2150 75° East 504 580 43,000  Level Houston Center
Tue 04:38:17 PM 30.7644 -90.0553 76° East 507 583 43,000  Level Houston Center
Tue 04:39:19 PM 30.8075 -89.8633 75° East 507 583 43,000  Level Houston Center
Tue 04:40:21 PM 30.8414 -89.7017 76° East 511 588 43,000  Level Houston Center
Tue 04:41:23 PM 30.8767 -89.5414 76° East 509 586 43,000  Level Houston Center
Tue 04:42:25 PM 30.9142 -89.3808 75° East 511 588 43,000  Level Houston Center
Tue 04:43:27 PM 30.9775 -89.2319 64° Northeast 510 587 43,000  Level Houston Center
Tue 04:44:29 PM 31.0397 -89.0844 64° Northeast 508 585 43,000  Level Houston Center
Tue 04:45:31 PM 31.1042 -88.9411 62° Northeast 502 578 43,000  Level Houston Center
Tue 04:46:33 PM 31.1697 -88.7947 62° Northeast 496 571 43,000  Level Houston Center
Tue 04:47:35 PM 31.2456 -88.6222 63° Northeast 494 568 43,000  Level Houston Center
Tue 04:48:37 PM 31.3089 -88.4789 63° Northeast 491 565 43,000  Level Houston Center
Tue 04:49:31 PM 31.3600 -88.3647 62° Northeast 504 580 43,000  Level Atlanta Center
Tue 04:50:31 PM 31.4233 -88.2242 62° Northeast 499 574 43,000  Level Atlanta Center
Tue 04:51:31 PM 31.4842 -88.0833 63° Northeast 494 568 43,000  Level Atlanta Center
Tue 04:52:31 PM 31.5431 -87.9447 63° Northeast 482 555 43,000  Level Atlanta Center
Tue 04:53:31 PM 31.6036 -87.8058 63° Northeast 482 555 43,000  Level Atlanta Center
Tue 04:54:31 PM 31.6619 -87.6669 64° Northeast 477 549 43,000  Level Atlanta Center
Tue 04:55:31 PM 31.7203 -87.5300 63° Northeast 477 549 43,000  Level Atlanta Center
Tue 04:56:31 PM 31.7783 -87.3956 63° Northeast 472 543 43,000  Level Atlanta Center
Tue 04:57:31 PM 31.8342 -87.2558 65° Northeast 467 537 43,000  Level Atlanta Center
Tue 04:58:31 PM 31.8897 -87.1183 65° Northeast 467 537 43,000  Level Atlanta Center
Tue 04:59:31 PM 31.9494 -86.9833 62° Northeast 460 529 43,000  Level Atlanta Center
Tue 05:00:31 PM 32.0047 -86.8456 65° Northeast 460 529 43,000  Level Atlanta Center
Tue 05:01:31 PM 32.0728 -86.6958 62° Northeast 460 529 43,000  Level Atlanta Center
Tue 05:02:31 PM 32.1322 -86.5578 63° Northeast 465 535 43,000  Level Atlanta Center
Tue 05:03:31 PM 32.1869 -86.4194 65° Northeast 465 535 43,000  Level Atlanta Center
Tue 05:04:31 PM 32.2417 -86.2858 64° Northeast 449 517 43,000  Level Atlanta Center
Tue 05:05:31 PM 32.3022 -86.1619 60° Northeast 460 529 43,000  Level Atlanta Center
Tue 05:06:31 PM 32.3714 -86.0283 58° Northeast 465 535 43,000  Level Atlanta Center
Tue 05:07:31 PM 32.4381 -85.8994 58° Northeast 465 535 43,000  Level Atlanta Center
Tue 05:08:31 PM 32.5156 -85.7483 59° Northeast 465 535 43,000  Level Atlanta Center
Tue 05:09:31 PM 32.5819 -85.6139 60° Northeast 472 543 43,000  Level Atlanta Center
Tue 05:10:31 PM 32.6483 -85.4794 60° Northeast 472 543 43,000  Level Atlanta Center
Tue 05:11:31 PM 32.7186 -85.3475 58° Northeast 467 537 43,000  Level Atlanta Center
Tue 05:12:31 PM 32.7825 -85.2125 61° Northeast 467 537 43,000  Level Atlanta Center
Tue 05:13:31 PM 32.8486 -85.0797 59° Northeast 467 537 43,000  Level Atlanta Center
Tue 05:14:31 PM 32.9183 -84.9494 57° Northeast 467 537 43,000  Level Atlanta Center
Tue 05:15:31 PM 32.9756 -84.8286 61° Northeast 467 537 43,000  Level Atlanta Center
Tue 05:16:31 PM 33.0411 -84.6931 60° Northeast 461 531 43,000  Level Atlanta Center
Tue 05:17:31 PM 33.1086 -84.5622 58° Northeast 466 536 43,000  Level Atlanta Center
Tue 05:18:31 PM 33.1717 -84.4308 60° Northeast 461 531 43,000  Level Atlanta Center
Tue 05:19:31 PM 33.2389 -84.2947 59° Northeast 466 536 43,000  Level Atlanta Center
Tue 05:20:31 PM 33.3058 -84.1581 60° Northeast 466 536 43,000  Level Atlanta Center
Tue 05:21:31 PM 33.3683 -84.0239 61° Northeast 461 531 43,000  Level Atlanta Center
Tue 05:22:31 PM 33.4350 -83.8894 59° Northeast 466 536 43,000  Level Atlanta Center
Tue 05:23:31 PM 33.5017 -83.7522 60° Northeast 466 536 43,000  Level Atlanta Center
Tue 05:24:31 PM 33.5661 -83.6200 60° Northeast 466 536 43,000  Level Atlanta Center
Tue 05:25:31 PM 33.6281 -83.4825 62° Northeast 465 535 43,000  Level Atlanta Center
Tue 05:26:31 PM 33.7003 -83.3347 60° Northeast 465 535 43,000  Level Atlanta Center
Tue 05:27:31 PM 33.7642 -83.1992 60° Northeast 465 535 43,000  Level Atlanta Center
Tue 05:28:31 PM 33.8300 -83.0636 60° Northeast 460 529 43,000  Level Atlanta Center
Tue 05:29:31 PM 33.8936 -82.9278 61° Northeast 466 536 43,000  Level Atlanta Center
Tue 05:30:31 PM 33.9569 -82.7892 61° Northeast 466 536 43,000  Level Atlanta Center
Tue 05:31:31 PM 34.0203 -82.6503 61° Northeast 466 536 43,000  Level Atlanta Center
Tue 05:32:31 PM 34.0853 -82.5164 60° Northeast 466 536 43,000  Level Atlanta Center
Tue 05:33:31 PM 34.1442 -82.3922 60° Northeast 466 536 43,000  Level Atlanta Center
Tue 05:34:31 PM 34.2050 -82.2556 62° Northeast 466 536 43,000  Level Atlanta Center
Tue 05:35:31 PM 34.2675 -82.1183 61° Northeast 466 536 43,000  Level Atlanta Center
Tue 05:36:31 PM 34.3364 -81.9861 58° Northeast 466 536 43,000  Level Atlanta Center
Tue 05:37:31 PM 34.4031 -81.8508 59° Northeast 466 536 43,000  Level Atlanta Center
Tue 05:38:31 PM 34.4714 -81.7156 58° Northeast 466 536 43,000  Level Atlanta Center
Tue 05:39:31 PM 34.5397 -81.5800 59° Northeast 466 536 43,000  Level Atlanta Center
Tue 05:40:31 PM 34.6039 -81.4494 59° Northeast 466 536 43,000  Level Atlanta Center
Tue 05:41:31 PM 34.6678 -81.3161 60° Northeast 461 531 43,000  Level Atlanta Center
Tue 05:42:31 PM 34.7356 -81.1800 59° Northeast 455 524 43,000  Level Atlanta Center
Tue 05:43:31 PM 34.8072 -81.0361 59° Northeast 455 524 43,000  Level Atlanta Center
Tue 05:44:31 PM 34.8728 -80.8969 60° Northeast 463 533 43,000  Level Atlanta Center
Tue 05:45:31 PM 34.9381 -80.7628 59° Northeast 463 533 43,000  Level Atlanta Center
Tue 05:46:31 PM 35.0033 -80.6283 59° Northeast 463 533 43,000  Level Atlanta Center
Tue 05:48:26 PM 35.1211 -80.3811 60° Northeast 461 531 43,000  Level Washington Center
Tue 05:49:27 PM 35.1850 -80.2478 60° Northeast 456 525 43,000  Level Washington Center
Tue 05:50:27 PM 35.2486 -80.1114 60° Northeast 456 525 43,000  Level Washington Center
Tue 05:51:26 PM 35.3186 -79.9653 60° Northeast 456 525 43,000  Level Washington Center
Tue 05:52:26 PM 35.3800 -79.8258 62° Northeast 456 525 43,000  Level Washington Center
Tue 05:53:26 PM 35.4414 -79.6864 62° Northeast 451 519 43,000  Level Washington Center
Tue 05:54:27 PM 35.5022 -79.5492 61° Northeast 451 519 43,000  Level Washington Center
Tue 05:55:25 PM 35.5631 -79.4119 61° Northeast 451 519 43,000  Level Washington Center
Tue 05:56:25 PM 35.6239 -79.2717 62° Northeast 451 519 43,000  Level Washington Center
Tue 05:57:26 PM 35.6842 -79.1339 62° Northeast 451 519 43,000  Level Washington Center
Tue 05:58:27 PM 35.7447 -78.9931 62° Northeast 451 519 43,000  Level Washington Center
Tue 05:59:27 PM 35.8050 -78.8550 62° Northeast 451 519 43,000  Level Washington Center
Tue 06:00:25 PM 35.8650 -78.7114 63° Northeast 451 519 43,000  Level Washington Center
Tue 06:01:25 PM 35.9269 -78.5725 61° Northeast 451 519 43,000  Level Washington Center
Tue 06:02:26 PM 35.9847 -78.4311 63° Northeast 457 526 43,000  Level Washington Center
Tue 06:03:27 PM 36.0422 -78.2919 63° Northeast 457 526 43,000  Level Washington Center
Tue 06:04:25 PM 36.1036 -78.1500 62° Northeast 457 526 43,000  Level Washington Center
Tue 06:05:26 PM 36.1608 -78.0103 63° Northeast 457 526 43,000  Level Washington Center
Tue 06:06:27 PM 36.2200 -77.8681 63° Northeast 457 526 43,000  Level Washington Center
Tue 06:07:27 PM 36.2769 -77.7278 63° Northeast 457 526 43,000  Level Washington Center
Tue 06:08:25 PM 36.3292 -77.6031 63° Northeast 457 526 43,000  Level Washington Center
Tue 06:09:26 PM 36.3878 -77.4625 63° Northeast 451 519 43,000  Level Washington Center
Tue 06:10:27 PM 36.4419 -77.3192 65° Northeast 451 519 43,000  Level Washington Center
Tue 06:11:25 PM 36.5003 -77.1783 63° Northeast 451 519 43,000  Level Washington Center
Tue 06:12:26 PM 36.5564 -77.0375 64° Northeast 451 519 43,000  Level Washington Center
Tue 06:13:27 PM 36.6517 -76.9150 46° Northeast 451 519 43,000  Level Washington Center
Tue 06:14:27 PM 36.7506 -76.8156 39° Northeast 439 505 43,000  Level Washington Center
Tue 06:15:27 PM 36.8456 -76.7183 39° Northeast 439 505 43,000  Level Washington Center
Tue 06:16:25 PM 36.9422 -76.6208 39° Northeast 444 511 43,000  Level Washington Center
Tue 06:17:25 PM 37.0369 -76.5208 40° Northeast 444 511 43,000  Level Washington Center
Tue 06:18:26 PM 37.1317 -76.4281 38° Northeast 444 511 43,000  Level Washington Center
Tue 06:19:27 PM 37.2261 -76.3300 40° Northeast 444 511 43,000  Level Washington Center
Tue 06:20:25 PM 37.3206 -76.2292 40° Northeast 439 505 43,000  Level Washington Center
Tue 06:21:26 PM 37.4189 -76.1383 36° Northeast 439 505 43,000  Level Washington Center
Tue 06:22:27 PM 37.5153 -76.0394 39° Northeast 439 505 43,000  Level Washington Center
Tue 06:23:25 PM 37.6117 -75.9406 39° Northeast 444 511 43,000  Level Washington Center
Tue 06:24:26 PM 37.7036 -75.8386 41° Northeast 444 511 43,000  Level Washington Center
Tue 06:25:26 PM 37.7997 -75.7417 39° Northeast 444 511 43,000  Level Washington Center
Tue 06:26:27 PM 37.8936 -75.6417 40° Northeast 444 511 43,000  Level Washington Center
Tue 06:27:25 PM 37.9875 -75.5444 39° Northeast 438 504 43,000  Level Washington Center
Tue 06:28:26 PM 38.0814 -75.4442 40° Northeast 438 504 43,000  Level Washington Center
Tue 06:29:27 PM 38.1769 -75.3461 39° Northeast 438 504 43,000  Level Washington Center
Tue 06:30:25 PM 38.2747 -75.2453 39° Northeast 438 504 43,000  Level Washington Center
Tue 06:31:25 PM 38.3661 -75.1442 41° Northeast 438 504 43,000  Level Washington Center
Tue 06:32:27 PM 38.4594 -75.0403 41° Northeast 438 504 43,000  Level Washington Center
Tue 06:33:27 PM 38.5550 -74.9414 39° Northeast 438 504 43,000  Level Washington Center
Tue 06:34:25 PM 38.6503 -74.8472 38° Northeast 438 504 43,000  Level Washington Center
Tue 06:35:25 PM 38.7456 -74.7425 41° Northeast 438 504 43,000  Level Washington Center
Tue 06:36:26 PM 38.8428 -74.6375 40° Northeast 451 519 43,000  Level Washington Center
Tue 06:37:26 PM 38.9378 -74.5322 41° Northeast 451 519 43,000  Level Washington Center
Tue 06:38:27 PM 39.0347 -74.4319 39° Northeast 451 519 43,000  Level Washington Center
Tue 06:39:25 PM 39.1294 -74.3258 41° Northeast 451 519 43,000  Level Washington Center
Tue 06:40:26 PM 39.2161 -74.2308 40° Northeast 451 519 43,000  Level Washington Center
Tue 06:41:27 PM 39.3086 -74.1297 40° Northeast 451 519 43,000  Level Washington Center
Tue 06:42:27 PM 39.4031 -74.0283 40° Northeast 451 519 43,000 -232 Level Washington Center
Tue 06:44:02 PM 39.5533 -73.8606 41° Northeast 448 516 42,400 -658 Descending Boston Center
Tue 06:45:02 PM 39.6464 -73.7547 41° Northeast 443 510 41,300 -700 Descending Boston Center
Tue 06:46:02 PM 39.7392 -73.6542 40° Northeast 436 502 41,000 -150 Descending Boston Center
Tue 06:47:02 PM 39.8297 -73.5503 41° Northeast 436 502 41,000  Level Boston Center
Tue 06:48:02 PM 39.9347 -73.4736 29° Northeast 436 502 41,000  Level Boston Center
Tue 06:49:02 PM 40.0247 -73.4289 21° North 431 496 41,000  Level Boston Center
Tue 06:50:02 PM 40.1608 -73.3497 24° Northeast 431 496 41,000 -350 Level Boston Center
Tue 06:51:02 PM 40.2717 -73.2778 26° Northeast 431 496 40,300 -1,400 Descending Boston Center
Tue 06:52:02 PM 40.3764 -73.2136 25° Northeast 431 496 38,200 -2,250 Descending Boston Center
Tue 06:53:02 PM 40.4850 -73.1522 23° Northeast 420 483 35,800 -2,450 Descending Boston Center
Tue 06:54:02 PM 40.5856 -73.0686 32° Northeast 420 483 33,300 -2,500 Descending Boston Center
Tue 06:55:02 PM 40.6778 -72.9656 40° Northeast 420 483 30,800 -2,500 Descending Boston Center
Tue 06:56:02 PM 40.7761 -72.8731 35° Northeast 431 496 28,300 -2,500 Descending Boston Center
Tue 06:57:02 PM 40.8681 -72.7667 41° Northeast 436 502 25,800 -2,500 Descending Boston Center
Tue 06:58:02 PM 40.9558 -72.6708 39° Northeast 421 484 23,300 -2,300 Descending Boston Center
Tue 06:59:02 PM 41.0394 -72.5778 40° Northeast 406 467 21,200 -1,450 Descending Boston Center
Tue 07:00:02 PM 41.1228 -72.4842 40° Northeast 394 453 20,400 -1,727 Descending Boston Center
Tue 07:01:14 PM 41.2292 -72.3656 40° Northeast 388 447 17,400 -1,545 Descending Boston Center
Tue 07:02:14 PM 41.3061 -72.2825 39° Northeast 370 426 17,000 -450 Descending Boston Center
Tue 07:03:14 PM 41.3894 -72.2297 25° Northeast 362 417 16,500 -1,050 Descending Boston Center
Tue 07:04:14 PM 41.4936 -72.1989 13° North 344 396 14,900 -1,618 Descending Boston Center
Tue 07:04:43 PM 41.5353 -72.1906 North 351 404 14,100 -1,200 Descending Boston Center
Tue 07:05:14 PM 41.5853 -72.1736 14° North 339 390 13,700 -984 Descending Boston Center
Tue 07:05:44 PM 41.6331 -72.1625 10° North 342 394 13,100 -1,000 Descending Boston Center
Tue 07:06:14 PM 41.6811 -72.1456 15° North 339 390 12,700 -1,000 Descending Boston Center
Tue 07:06:44 PM 41.7269 -72.1369 North 345 397 12,100 -1,000 Descending Boston Center
Tue 07:07:14 PM 41.7728 -72.1228 13° North 334 384 11,700 -1,091 Descending Boston Center
Tue 07:07:39 PM 41.8122 -72.1142 North 334 384 11,100 -1,000 Descending Boston Center
Tue 07:08:14 PM 41.8600 -72.1000 12° North 334 384 10,700 -984 Descending Boston Center
Tue 07:08:40 PM 41.8997 -72.0914 North 329 379 10,100 -900 Descending Boston Center
Tue 07:09:14 PM 41.9372 -72.0800 13° North 321 369 9,800 -1,000 Descending Boston Center
Tue 07:09:40 PM 41.9767 -72.0686 12° North 280 322 9,100 -1,200 Descending Boston Center
Tue 07:10:14 PM 42.0225 -72.0572 10° North 289 333 8,600 -1,082 Descending Boston Center
Tue 07:10:41 PM 42.0539 -72.0458 15° North 279 321 8,000 -1,200 Descending Boston Center
Tue 07:11:14 PM 42.0850 -72.0372 12° North 271 312 7,400 -1,180 Descending Boston Center
Tue 07:11:42 PM 42.1225 -72.0092 29° Northeast 256 295 6,800 -1,100 Descending Boston Center
Tue 07:12:14 PM 42.1514 -71.9781 39° Northeast 251 289 6,300 -913 Descending Boston Center
Tue 07:13:14 PM 42.2011 -71.9244 39° Northeast 251 289 5,400 -600 Descending Boston Center
Tue 07:14:14 PM 42.2633 -71.8508 41° Northeast 261 300 5,100 -150 Descending Boston Center
Tue 07:15:14 PM 42.3214 -71.7858 40° Northeast 254 292 5,100 -250 Level Boston Center
Tue 07:16:14 PM 42.3711 -71.7208 44° Northeast 260 299 4,600 -550 Descending Boston Center
Tue 07:17:14 PM 42.3997 -71.6444 63° Northeast 229 264 4,000 -600 Descending Boston Center
Tue 07:18:14 PM 42.4242 -71.5739 65° Northeast 215 247 3,400 -550 Descending Boston Center
Tue 07:19:14 PM 42.4508 -71.5058 62° Northeast 210 242 2,900 -500 Descending Boston Center
Tue 07:20:14 PM 42.4731 -71.4436 64° Northeast 190 219 2,400 -689 Descending Boston Center
Tue 07:21:16 PM 42.4833 -71.3833 77° East 150 173 1,500 -787 Descending KA90
Tue 07:22:16 PM 42.4833 -71.3333 90° East 127 146 800 -700 Descending KA90

Login

Don't have an account? Register now (free) for customized features, flight alerts, and more!